createdAt,value
2022-11-16T00:00:06.282Z,93.41
2022-11-16T00:01:40.332Z,95.21
2022-11-16T00:03:13.284Z,93.51
2022-11-16T00:04:45.382Z,93.89
2022-11-16T00:06:23.716Z,94.14
2022-11-16T00:07:55.896Z,94.21
2022-11-16T00:09:30.319Z,94.09
2022-11-16T00:11:10.702Z,94.17
2022-11-16T00:12:45.234Z,94.46
2022-11-16T00:14:17.163Z,93.88
2022-11-16T00:16:00.266Z,93.66
2022-11-16T00:17:47.266Z,94.13
2022-11-16T00:19:21.799Z,94.20
2022-11-16T00:20:53.658Z,94.59
2022-11-16T00:22:32.062Z,94.34
2022-11-16T00:24:11.398Z,95.10
2022-11-16T00:25:43.379Z,94.31
2022-11-16T00:27:21.220Z,95.40
2022-11-16T00:29:04.056Z,95.64
2022-11-16T00:30:36.903Z,95.40
2022-11-16T00:32:16.524Z,94.40
2022-11-16T00:34:19.486Z,95.36
2022-11-16T00:37:55.612Z,95.93
2022-11-16T00:39:35.276Z,96.22
2022-11-16T00:41:10.391Z,95.76
2022-11-16T00:43:08.660Z,95.50
2022-11-16T00:45:04.777Z,95.59
2022-11-16T00:47:08.139Z,95.70
2022-11-16T00:48:45.733Z,95.19
2022-11-16T00:50:35.611Z,96.49
2022-11-16T00:52:20.467Z,96.36
2022-11-16T00:54:20.555Z,96.26
2022-11-16T00:56:01.392Z,96.06
2022-11-16T00:59:38.960Z,97.21
2022-11-16T01:03:05.757Z,96.39
2022-11-16T01:04:41.145Z,96.03
2022-11-16T01:06:34.127Z,96.54
2022-11-16T01:08:13.056Z,95.44
2022-11-16T01:09:49.169Z,96.16
2022-11-16T01:11:42.389Z,96.02
2022-11-16T01:13:25.466Z,96.12
2022-11-16T01:15:09.789Z,96.49
2022-11-16T01:16:42.634Z,96.60
2022-11-16T01:18:17.220Z,96.91
2022-11-16T01:19:52.604Z,96.29
2022-11-16T01:21:33.383Z,96.02
2022-11-16T01:23:09.008Z,95.69
2022-11-16T01:25:03.678Z,95.34
2022-11-16T01:26:43.666Z,96.17
2022-11-16T01:28:22.293Z,96.68
2022-11-16T01:30:07.744Z,96.33
2022-11-16T01:31:42.282Z,97.27
2022-11-16T01:33:25.350Z,97.03
2022-11-16T01:35:06.484Z,97.29
2022-11-16T01:36:45.270Z,96.03
2022-11-16T01:38:17.384Z,96.48
2022-11-16T01:39:52.929Z,96.46
2022-11-16T01:41:31.981Z,96.33
2022-11-16T01:43:16.164Z,96.94
2022-11-16T01:45:23.432Z,95.89
2022-11-16T01:47:16.472Z,96.30
2022-11-16T01:48:55.712Z,97.26
2022-11-16T01:50:33.913Z,97.23
2022-11-16T01:52:30.818Z,96.78
2022-11-16T01:55:11.366Z,96.37
2022-11-16T01:57:24.380Z,96.29
2022-11-16T01:59:09.538Z,96.19
2022-11-16T02:01:10.989Z,95.98
2022-11-16T02:02:57.979Z,95.81
2022-11-16T02:04:53.253Z,95.92
2022-11-16T02:06:51.286Z,96.74
2022-11-16T02:09:14.351Z,96.49
2022-11-16T02:11:27.920Z,96.63
2022-11-16T02:13:20.661Z,97.04
2022-11-16T02:15:12.154Z,96.12
2022-11-16T02:16:49.906Z,96.94
2022-11-16T02:18:34.112Z,96.36
2022-11-16T02:20:51.533Z,96.21
2022-11-16T02:22:27.298Z,96.03
2022-11-16T02:24:52.945Z,96.72
2022-11-16T02:26:53.177Z,96.76
2022-11-16T02:28:31.816Z,97.05
2022-11-16T02:30:06.512Z,96.58
2022-11-16T02:31:41.128Z,96.89
2022-11-16T02:33:13.375Z,97.24
2022-11-16T02:34:46.357Z,97.41
2022-11-16T02:36:20.506Z,97.03
2022-11-16T02:37:54.376Z,97.24
2022-11-16T02:39:27.215Z,97.17
2022-11-16T02:41:01.601Z,96.41
2022-11-16T02:42:34.889Z,95.46
2022-11-16T02:44:08.924Z,95.90
2022-11-16T02:45:43.635Z,95.71
2022-11-16T02:47:18.408Z,95.62
2022-11-16T02:48:50.973Z,96.20
2022-11-16T02:50:23.324Z,95.86
2022-11-16T02:51:54.913Z,96.02
2022-11-16T02:53:26.515Z,95.94
2022-11-16T02:54:58.137Z,96.50
2022-11-16T02:56:30.024Z,96.29
2022-11-16T02:58:01.999Z,96.63
2022-11-16T02:59:36.070Z,95.99
2022-11-16T03:01:09.470Z,96.71
2022-11-16T03:02:45.078Z,96.31
2022-11-16T03:04:19.294Z,96.11
2022-11-16T03:05:52.435Z,96.41
2022-11-16T03:07:25.748Z,96.09
2022-11-16T03:09:00.099Z,96.20
2022-11-16T03:10:51.673Z,96.71
2022-11-16T03:12:25.189Z,96.94
2022-11-16T03:13:59.136Z,96.32
2022-11-16T03:15:30.793Z,96.83
2022-11-16T03:17:04.901Z,96.44
2022-11-16T03:18:38.536Z,96.60
2022-11-16T03:20:12.858Z,96.29
2022-11-16T03:21:47.049Z,96.19
2022-11-16T03:23:18.670Z,96.30
2022-11-16T03:24:50.358Z,96.24
2022-11-16T03:26:24.208Z,96.59
2022-11-16T03:27:57.899Z,96.24
2022-11-16T03:29:30.918Z,95.95
2022-11-16T03:31:08.387Z,96.55
2022-11-16T03:32:45.850Z,96.00
2022-11-16T03:34:19.449Z,96.12
2022-11-16T03:35:53.211Z,95.74
2022-11-16T03:37:25.816Z,96.05
2022-11-16T03:38:59.856Z,95.95
2022-11-16T03:40:33.018Z,95.51
2022-11-16T03:42:08.533Z,96.16
2022-11-16T03:43:40.705Z,96.59
2022-11-16T03:45:13.256Z,96.19
2022-11-16T03:46:45.847Z,96.41
2022-11-16T03:48:19.373Z,95.59
2022-11-16T03:49:51.046Z,95.82
2022-11-16T03:51:22.664Z,95.57
2022-11-16T03:52:54.282Z,95.73
2022-11-16T03:54:25.917Z,96.45
2022-11-16T03:55:58.326Z,95.94
2022-11-16T03:57:30.346Z,96.38
2022-11-16T03:59:02.205Z,96.06
2022-11-16T04:00:35.418Z,95.97
2022-11-16T04:02:07.636Z,95.67
2022-11-16T04:03:41.123Z,96.25
2022-11-16T04:05:51.638Z,95.62
2022-11-16T04:07:42.951Z,96.24
2022-11-16T04:09:34.295Z,96.19
2022-11-16T04:11:27.307Z,96.00
2022-11-16T04:13:18.077Z,95.88
2022-11-16T04:15:08.445Z,95.88
2022-11-16T04:16:58.837Z,96.36
2022-11-16T04:18:49.106Z,96.01
2022-11-16T04:20:41.002Z,95.92
2022-11-16T04:22:32.796Z,95.35
2022-11-16T04:24:14.136Z,95.88
2022-11-16T04:25:45.855Z,95.41
2022-11-16T04:27:35.873Z,95.04
2022-11-16T04:29:07.484Z,95.53
2022-11-16T04:30:58.241Z,95.71
2022-11-16T04:32:49.695Z,95.62
2022-11-16T04:34:40.067Z,95.85
2022-11-16T04:36:33.595Z,95.13
2022-11-16T04:38:06.804Z,95.11
2022-11-16T04:39:39.096Z,95.75
2022-11-16T04:41:30.894Z,96.05
2022-11-16T04:43:04.183Z,95.44
2022-11-16T04:44:55.379Z,96.41
2022-11-16T04:46:46.224Z,96.28
2022-11-16T04:48:19.009Z,95.84
2022-11-16T04:49:50.628Z,95.90
2022-11-16T04:51:23.727Z,95.90
2022-11-16T04:52:55.308Z,96.32
2022-11-16T04:54:26.913Z,95.52
2022-11-16T04:56:00.868Z,95.70
2022-11-16T04:57:32.777Z,96.37
2022-11-16T04:59:04.397Z,96.01
2022-11-16T05:00:36.045Z,96.02
2022-11-16T05:02:10.411Z,95.72
2022-11-16T05:03:42.031Z,96.34
2022-11-16T05:05:13.749Z,95.44
2022-11-16T05:06:47.743Z,95.88
2022-11-16T05:08:19.560Z,95.33
2022-11-16T05:09:51.360Z,95.76
2022-11-16T05:11:23.762Z,96.75
2022-11-16T05:12:55.343Z,95.50
2022-11-16T05:14:27.017Z,95.66
2022-11-16T05:15:58.686Z,95.52
2022-11-16T05:17:30.358Z,95.96
2022-11-16T05:19:20.518Z,95.83
2022-11-16T05:21:00.879Z,95.57
2022-11-16T05:22:33.846Z,96.12
2022-11-16T05:24:24.548Z,95.65
2022-11-16T05:25:56.204Z,95.83
2022-11-16T05:27:28.305Z,95.57
2022-11-16T05:28:59.888Z,96.69
2022-11-16T05:30:31.507Z,96.85
2022-11-16T05:32:03.248Z,97.13
2022-11-16T05:33:34.905Z,96.15
2022-11-16T05:35:07.107Z,96.72
2022-11-16T05:36:38.704Z,96.62
2022-11-16T05:38:11.875Z,96.81
2022-11-16T05:39:43.578Z,96.69
2022-11-16T05:41:15.190Z,96.24
2022-11-16T05:42:46.765Z,95.90
2022-11-16T05:44:18.486Z,95.70
2022-11-16T05:45:50.142Z,95.19
2022-11-16T05:47:21.827Z,95.29
2022-11-16T05:48:53.491Z,95.26
2022-11-16T05:50:25.158Z,95.76
2022-11-16T05:51:56.773Z,96.21
2022-11-16T05:53:29.788Z,95.93
2022-11-16T05:55:01.470Z,96.64
2022-11-16T05:56:33.225Z,96.25
2022-11-16T05:58:05.099Z,95.86
2022-11-16T05:59:36.801Z,95.66
2022-11-16T06:01:08.415Z,95.78
2022-11-16T06:02:40.106Z,95.38
2022-11-16T06:04:11.995Z,95.27
2022-11-16T06:05:43.673Z,95.25
2022-11-16T06:07:15.395Z,95.98
2022-11-16T06:08:48.448Z,96.03
2022-11-16T06:10:20.073Z,95.97
2022-11-16T06:11:51.741Z,95.56
2022-11-16T06:13:23.454Z,95.62
2022-11-16T06:14:55.387Z,96.03
2022-11-16T06:16:27.524Z,95.38
2022-11-16T06:18:00.109Z,95.98
2022-11-16T06:19:32.685Z,95.33
2022-11-16T06:21:04.997Z,94.58
2022-11-16T06:22:36.655Z,94.89
2022-11-16T06:24:09.759Z,95.12
2022-11-16T06:25:41.476Z,95.68
2022-11-16T06:27:13.125Z,96.04
2022-11-16T06:28:44.965Z,96.13
2022-11-16T06:30:16.854Z,95.70
2022-11-16T06:31:48.505Z,95.90
2022-11-16T06:33:20.167Z,95.50
2022-11-16T06:34:51.825Z,96.04
2022-11-16T06:36:23.421Z,95.22
2022-11-16T06:37:55.565Z,95.80
2022-11-16T06:39:28.659Z,96.31
2022-11-16T06:41:01.428Z,95.36
2022-11-16T06:42:33.048Z,96.33
2022-11-16T06:44:04.648Z,97.13
2022-11-16T06:45:36.250Z,97.46
2022-11-16T06:47:07.863Z,97.44
2022-11-16T06:48:39.488Z,96.61
2022-11-16T06:50:11.379Z,95.67
2022-11-16T06:51:43.025Z,95.55
2022-11-16T06:53:14.650Z,94.94
2022-11-16T06:54:47.620Z,93.71
2022-11-16T06:56:19.540Z,94.15
2022-11-16T06:57:51.130Z,93.62
2022-11-16T06:59:22.790Z,93.65
2022-11-16T07:00:54.430Z,93.77
2022-11-16T07:02:26.084Z,94.02
2022-11-16T07:03:57.819Z,94.53
2022-11-16T07:05:29.573Z,94.30
2022-11-16T07:07:01.306Z,94.34
2022-11-16T07:08:35.012Z,94.88
2022-11-16T07:10:09.381Z,94.62
2022-11-16T07:11:41.019Z,94.56
2022-11-16T07:13:12.634Z,94.19
2022-11-16T07:14:45.445Z,94.36
2022-11-16T07:16:17.054Z,95.94
2022-11-16T07:17:48.669Z,95.72
2022-11-16T07:19:20.245Z,94.95
2022-11-16T07:20:52.680Z,93.69
2022-11-16T07:22:24.301Z,93.89
2022-11-16T07:23:55.947Z,94.04
2022-11-16T07:25:29.080Z,93.23
2022-11-16T07:27:00.884Z,93.90
2022-11-16T07:28:32.813Z,93.95
2022-11-16T07:30:05.835Z,93.61
2022-11-16T07:31:37.976Z,93.37
2022-11-16T07:33:09.630Z,92.78
2022-11-16T07:34:41.241Z,93.15
2022-11-16T07:36:13.758Z,93.40
2022-11-16T07:37:45.409Z,93.95
2022-11-16T07:39:17.045Z,94.71
2022-11-16T07:40:50.090Z,93.70
2022-11-16T07:42:21.716Z,94.62
2022-11-16T07:43:53.564Z,94.27
2022-11-16T07:45:25.319Z,93.85
2022-11-16T07:46:57.004Z,93.66
2022-11-16T07:48:28.710Z,94.01
2022-11-16T07:50:00.345Z,93.85
2022-11-16T07:51:32.108Z,93.08
2022-11-16T07:53:03.728Z,94.25
2022-11-16T07:54:35.397Z,94.01
2022-11-16T07:56:08.893Z,93.91
2022-11-16T07:57:40.868Z,93.39
2022-11-16T07:59:12.531Z,94.06
2022-11-16T08:00:44.192Z,93.92
2022-11-16T08:02:15.882Z,93.87
2022-11-16T08:03:48.102Z,93.26
2022-11-16T08:05:19.751Z,93.73
2022-11-16T08:06:51.928Z,93.51
2022-11-16T08:08:23.674Z,93.38
2022-11-16T08:09:55.560Z,93.68
2022-11-16T08:11:28.651Z,94.52
2022-11-16T08:13:00.303Z,94.08
2022-11-16T08:14:31.963Z,93.42
2022-11-16T08:16:04.564Z,93.93
2022-11-16T08:17:36.209Z,94.10
2022-11-16T08:19:07.906Z,93.76
2022-11-16T08:20:39.584Z,93.68
2022-11-16T08:22:11.189Z,92.61
2022-11-16T08:23:42.930Z,93.50
2022-11-16T08:25:14.584Z,93.34
2022-11-16T08:26:47.702Z,93.51
2022-11-16T08:28:19.345Z,94.25
2022-11-16T08:29:51.032Z,93.98
2022-11-16T08:31:24.138Z,93.69
2022-11-16T08:32:55.788Z,93.91
2022-11-16T08:34:27.443Z,94.04
2022-11-16T08:36:07.064Z,94.03
2022-11-16T08:37:41.196Z,94.40
2022-11-16T08:39:12.829Z,93.73
2022-11-16T08:40:44.605Z,94.15
2022-11-16T08:42:17.674Z,93.94
2022-11-16T08:43:50.823Z,94.30
2022-11-16T08:45:22.666Z,94.37
2022-11-16T08:46:54.337Z,94.14
2022-11-16T08:48:26.038Z,94.19
2022-11-16T08:49:57.726Z,93.67
2022-11-16T08:51:29.433Z,93.45
2022-11-16T08:53:01.147Z,93.25
2022-11-16T08:54:32.849Z,93.53
2022-11-16T08:56:05.345Z,93.54
2022-11-16T08:57:38.375Z,93.11
2022-11-16T08:59:10.030Z,93.46
2022-11-16T09:00:41.755Z,93.62
2022-11-16T09:02:13.638Z,93.15
2022-11-16T09:03:45.422Z,93.66
2022-11-16T09:05:17.203Z,94.05
2022-11-16T09:06:48.921Z,94.31
2022-11-16T09:08:20.687Z,94.05
2022-11-16T09:09:52.381Z,93.23
2022-11-16T09:11:24.991Z,93.46
2022-11-16T09:12:58.007Z,92.94
2022-11-16T09:14:30.679Z,93.01
2022-11-16T09:16:02.412Z,92.63
2022-11-16T09:17:34.110Z,92.66
2022-11-16T09:19:05.741Z,92.92
2022-11-16T09:20:37.396Z,92.25
2022-11-16T09:22:09.110Z,93.67
2022-11-16T09:23:40.734Z,93.64
2022-11-16T09:25:12.474Z,93.49
2022-11-16T09:26:44.155Z,92.96
2022-11-16T09:28:17.265Z,92.32
2022-11-16T09:29:48.988Z,92.72
2022-11-16T09:31:23.543Z,93.02
2022-11-16T09:32:57.027Z,92.14
2022-11-16T09:34:28.718Z,92.47
2022-11-16T09:36:06.903Z,92.00
2022-11-16T09:37:38.643Z,92.17
2022-11-16T09:39:30.723Z,92.58
2022-11-16T09:41:09.519Z,92.33
2022-11-16T09:42:48.437Z,91.75
2022-11-16T09:44:33.325Z,92.16
2022-11-16T09:46:11.528Z,92.79
2022-11-16T09:47:49.596Z,92.03
2022-11-16T09:49:22.792Z,92.21
2022-11-16T09:50:55.154Z,92.31
2022-11-16T09:52:28.565Z,92.13
2022-11-16T09:54:02.087Z,91.74
2022-11-16T09:55:35.256Z,91.23
2022-11-16T09:57:12.396Z,91.24
2022-11-16T09:58:48.351Z,91.63
2022-11-16T10:00:23.696Z,91.93
2022-11-16T10:01:57.161Z,91.35
2022-11-16T10:03:28.865Z,88.60
2022-11-16T10:05:01.919Z,88.22
2022-11-16T10:06:40.149Z,87.74
2022-11-16T10:08:14.224Z,86.00
2022-11-16T10:09:46.663Z,86.95
2022-11-16T10:11:48.738Z,85.99
2022-11-16T10:13:27.116Z,85.62
2022-11-16T10:15:06.656Z,85.75
2022-11-16T10:16:40.490Z,86.54
2022-11-16T10:18:20.747Z,86.02
2022-11-16T10:19:53.792Z,86.31
2022-11-16T10:21:35.293Z,85.61
2022-11-16T10:23:10.118Z,85.47
2022-11-16T10:24:47.651Z,85.83
2022-11-16T10:26:24.936Z,86.47
2022-11-16T10:28:10.518Z,84.74
2022-11-16T10:29:46.858Z,84.78
2022-11-16T10:31:21.368Z,85.51
2022-11-16T10:32:55.135Z,84.73
2022-11-16T10:34:28.616Z,84.25
2022-11-16T10:36:00.299Z,85.64
2022-11-16T10:37:32.467Z,84.75
2022-11-16T10:39:08.457Z,84.63
2022-11-16T10:40:40.731Z,84.71
2022-11-16T10:42:13.462Z,85.12
2022-11-16T10:43:45.632Z,85.23
2022-11-16T10:45:18.479Z,86.34
2022-11-16T10:46:55.954Z,85.24
2022-11-16T10:48:37.040Z,85.40
2022-11-16T10:50:22.071Z,84.48
2022-11-16T10:51:53.711Z,84.24
2022-11-16T10:53:29.261Z,84.19
2022-11-16T10:55:00.880Z,84.03
2022-11-16T10:56:37.248Z,84.27
2022-11-16T10:58:11.864Z,84.21
2022-11-16T10:59:44.335Z,85.19
2022-11-16T11:01:35.928Z,83.91
2022-11-16T11:03:07.864Z,84.78
2022-11-16T11:04:41.000Z,85.44
2022-11-16T11:06:13.833Z,84.34
2022-11-16T11:07:46.814Z,85.47
2022-11-16T11:09:26.910Z,85.41
2022-11-16T11:11:01.862Z,84.67
2022-11-16T11:12:39.330Z,84.44
2022-11-16T11:14:12.290Z,84.88
2022-11-16T11:15:44.675Z,85.22
2022-11-16T11:17:17.389Z,83.70
2022-11-16T11:18:51.332Z,83.66
2022-11-16T11:20:24.574Z,85.00
2022-11-16T11:21:56.778Z,84.13
2022-11-16T11:23:28.446Z,84.40
2022-11-16T11:25:01.396Z,84.44
2022-11-16T11:26:36.943Z,82.77
2022-11-16T11:28:18.888Z,83.43
2022-11-16T11:29:51.708Z,83.96
2022-11-16T11:31:27.121Z,84.37
2022-11-16T11:32:58.790Z,81.97
2022-11-16T11:34:31.413Z,82.51
2022-11-16T11:36:05.470Z,81.62
2022-11-16T11:37:37.461Z,81.98
2022-11-16T11:39:26.894Z,81.41
2022-11-16T11:40:59.605Z,82.60
2022-11-16T11:42:31.192Z,82.49
2022-11-16T11:44:05.816Z,81.50
2022-11-16T11:45:41.775Z,81.14
2022-11-16T11:49:23.680Z,81.46
2022-11-16T11:50:55.567Z,79.84
2022-11-16T11:52:33.465Z,80.38
2022-11-16T11:54:05.174Z,80.43
2022-11-16T11:55:36.875Z,81.62
2022-11-16T11:57:09.408Z,80.74
2022-11-16T11:58:41.601Z,80.46
2022-11-16T12:00:14.672Z,80.17
2022-11-16T12:02:08.795Z,79.97
2022-11-16T12:03:58.083Z,80.05
2022-11-16T12:05:42.426Z,80.38
2022-11-16T12:07:19.324Z,79.44
2022-11-16T12:09:02.757Z,79.32
2022-11-16T12:10:37.504Z,78.40
2022-11-16T12:12:16.248Z,78.59
2022-11-16T12:14:00.489Z,79.87
2022-11-16T12:15:39.712Z,80.39
2022-11-16T12:17:13.601Z,79.66
2022-11-16T12:18:51.981Z,79.86
2022-11-16T12:20:29.942Z,77.98
2022-11-16T12:22:07.420Z,78.44
2022-11-16T12:24:04.445Z,79.29
2022-11-16T12:25:38.262Z,78.91
2022-11-16T12:27:15.215Z,76.28
2022-11-16T12:28:59.670Z,76.62
2022-11-16T12:30:32.527Z,77.56
2022-11-16T12:32:12.605Z,79.02
2022-11-16T12:33:46.077Z,77.01
2022-11-16T12:35:28.628Z,80.23
2022-11-16T12:37:03.780Z,77.70
2022-11-16T12:38:40.911Z,78.53
2022-11-16T12:40:23.729Z,77.06
2022-11-16T12:42:11.909Z,77.76
2022-11-16T12:43:45.816Z,77.90
2022-11-16T12:45:32.265Z,77.41
2022-11-16T12:47:06.762Z,77.74
2022-11-16T12:49:30.312Z,76.48
2022-11-16T12:51:04.414Z,77.00
2022-11-16T12:53:06.558Z,78.33
2022-11-16T12:55:23.706Z,77.75
2022-11-16T12:56:48.638Z,78.49
2022-11-16T12:58:27.247Z,75.79
2022-11-16T13:00:06.002Z,74.98
2022-11-16T13:01:39.692Z,74.84
2022-11-16T13:03:14.936Z,77.14
2022-11-16T13:04:47.994Z,75.97
2022-11-16T13:06:20.519Z,77.90
2022-11-16T13:07:53.518Z,77.63
2022-11-16T13:09:26.199Z,76.72
2022-11-16T13:11:04.645Z,75.70
2022-11-16T13:12:38.705Z,76.57
2022-11-16T13:14:12.932Z,78.06
2022-11-16T13:15:46.382Z,76.88
2022-11-16T13:17:19.724Z,77.17
2022-11-16T13:18:51.417Z,77.47
2022-11-16T13:20:32.814Z,78.44
2022-11-16T13:22:06.939Z,77.14
2022-11-16T13:23:45.394Z,77.91
2022-11-16T13:25:18.705Z,77.72
2022-11-16T13:26:56.272Z,77.31
2022-11-16T13:28:33.495Z,76.86
2022-11-16T13:30:17.029Z,74.78
2022-11-16T13:31:51.489Z,74.29
2022-11-16T13:33:30.317Z,75.88
2022-11-16T13:35:03.766Z,71.48
2022-11-16T13:36:43.533Z,73.99
2022-11-16T13:38:15.283Z,71.54
2022-11-16T13:40:09.175Z,74.19
2022-11-16T13:41:41.383Z,70.48
2022-11-16T13:43:17.697Z,70.46
2022-11-16T13:44:51.746Z,69.33
2022-11-16T13:46:54.210Z,72.95
2022-11-16T13:48:17.668Z,70.13
2022-11-16T13:49:51.125Z,68.18
2022-11-16T13:51:23.143Z,68.03
2022-11-16T13:54:53.995Z,68.66
2022-11-16T13:56:29.275Z,69.90
2022-11-16T13:58:02.342Z,69.80
2022-11-16T13:59:35.091Z,71.21
2022-11-16T14:01:10.647Z,70.40
2022-11-16T14:02:42.392Z,68.78
2022-11-16T14:04:50.450Z,69.42
2022-11-16T14:06:57.256Z,69.82
2022-11-16T14:08:45.400Z,72.01
2022-11-16T14:10:53.300Z,68.59
2022-11-16T14:12:54.951Z,72.01
2022-11-16T14:15:03.589Z,71.34
2022-11-16T14:16:49.888Z,70.13
2022-11-16T14:18:34.720Z,70.64
2022-11-16T14:20:09.419Z,74.81
2022-11-16T14:21:48.436Z,73.81
2022-11-16T14:23:59.052Z,69.54
2022-11-16T14:25:39.090Z,69.03
2022-11-16T14:27:18.391Z,72.86
2022-11-16T14:29:16.673Z,72.51
2022-11-16T14:30:59.013Z,73.92
2022-11-16T14:32:42.668Z,72.61
2022-11-16T14:34:18.790Z,73.30
2022-11-16T14:35:53.889Z,73.91
2022-11-16T14:37:31.845Z,73.86
2022-11-16T14:39:33.563Z,77.99
2022-11-16T14:41:09.156Z,77.43
2022-11-16T14:43:14.866Z,77.42
2022-11-16T14:44:41.068Z,78.12
2022-11-16T14:46:17.542Z,78.28
2022-11-16T14:47:50.619Z,78.47
2022-11-16T14:49:22.461Z,78.13
2022-11-16T14:51:04.989Z,78.08
2022-11-16T14:52:37.834Z,79.37
2022-11-16T14:54:13.425Z,78.21
2022-11-16T14:55:46.222Z,80.03
2022-11-16T14:57:19.129Z,79.22
2022-11-16T14:58:52.054Z,80.01
2022-11-16T15:00:30.266Z,80.41
2022-11-16T15:02:15.106Z,79.27
2022-11-16T15:03:53.091Z,80.03
2022-11-16T15:05:29.585Z,79.71
2022-11-16T15:07:02.351Z,80.40
2022-11-16T15:08:37.106Z,80.92
2022-11-16T15:10:11.166Z,81.81
2022-11-16T15:12:01.305Z,80.18
2022-11-16T15:13:33.234Z,79.66
2022-11-16T15:15:07.031Z,80.08
2022-11-16T15:16:50.874Z,80.35
2022-11-16T15:18:26.540Z,80.50
2022-11-16T15:20:18.039Z,81.22
2022-11-16T15:21:53.270Z,81.35
2022-11-16T15:23:30.338Z,80.96
2022-11-16T15:25:04.918Z,81.24
2022-11-16T15:26:37.700Z,81.67
2022-11-16T15:28:17.006Z,82.65
2022-11-16T15:29:48.686Z,81.81
2022-11-16T15:31:20.368Z,82.08
2022-11-16T15:32:52.369Z,83.22
2022-11-16T15:34:25.859Z,81.81
2022-11-16T15:35:59.000Z,83.11
2022-11-16T15:37:30.758Z,82.85
2022-11-16T15:39:02.590Z,83.01
2022-11-16T15:40:34.318Z,83.24
2022-11-16T15:42:06.070Z,83.12
2022-11-16T15:43:49.809Z,82.93
2022-11-16T15:45:30.832Z,83.88
2022-11-16T15:47:02.459Z,83.85
2022-11-16T15:48:34.885Z,84.17
2022-11-16T15:50:11.003Z,85.37
2022-11-16T15:51:44.444Z,84.84
2022-11-16T15:53:33.172Z,84.82
2022-11-16T15:55:05.685Z,84.29
2022-11-16T15:56:37.845Z,84.58
2022-11-16T15:58:14.615Z,85.12
2022-11-16T15:59:47.561Z,85.27
2022-11-16T16:01:19.281Z,84.49
2022-11-16T16:02:50.975Z,84.99
2022-11-16T16:04:23.061Z,84.57
2022-11-16T16:05:54.945Z,85.93
2022-11-16T16:07:40.221Z,84.60
2022-11-16T16:09:18.379Z,86.19
2022-11-16T16:10:57.900Z,85.19
2022-11-16T16:12:29.567Z,85.69
2022-11-16T16:14:02.120Z,85.90
2022-11-16T16:15:36.502Z,84.89
2022-11-16T16:17:08.262Z,86.54
2022-11-16T16:18:41.994Z,85.58
2022-11-16T16:20:18.162Z,86.17
2022-11-16T16:21:49.782Z,86.21
2022-11-16T16:23:24.791Z,86.04
2022-11-16T16:24:56.542Z,86.20
2022-11-16T16:26:28.344Z,86.60
2022-11-16T16:27:59.992Z,86.61
2022-11-16T16:29:31.733Z,86.78
2022-11-16T16:31:03.320Z,86.27
2022-11-16T16:32:35.920Z,87.29
2022-11-16T16:34:11.471Z,86.99
2022-11-16T16:35:45.060Z,86.81
2022-11-16T16:37:16.722Z,85.81
2022-11-16T16:38:50.339Z,87.54
2022-11-16T16:40:22.024Z,87.58
2022-11-16T16:41:53.654Z,86.52
2022-11-16T16:43:25.441Z,87.70
2022-11-16T16:44:57.419Z,86.73
2022-11-16T16:46:29.406Z,86.29
2022-11-16T16:48:01.308Z,87.84
2022-11-16T16:49:33.151Z,87.16
2022-11-16T16:51:05.075Z,87.21
2022-11-16T16:52:39.785Z,87.05
2022-11-16T16:54:14.597Z,88.12
2022-11-16T16:55:47.797Z,87.18
2022-11-16T16:57:19.557Z,87.07
2022-11-16T16:58:51.181Z,87.08
2022-11-16T17:00:25.734Z,87.77
2022-11-16T17:01:57.615Z,87.70
2022-11-16T17:03:30.638Z,87.20
2022-11-16T17:05:02.321Z,87.76
2022-11-16T17:06:34.049Z,88.62
2022-11-16T17:08:06.074Z,88.89
2022-11-16T17:09:39.436Z,88.23
2022-11-16T17:11:14.833Z,88.38
2022-11-16T17:12:47.123Z,87.45
2022-11-16T17:14:21.447Z,87.70
2022-11-16T17:15:53.193Z,87.85
2022-11-16T17:17:24.983Z,88.54
2022-11-16T17:18:56.800Z,88.06
2022-11-16T17:20:28.697Z,88.81
2022-11-16T17:22:00.517Z,88.57
2022-11-16T17:23:32.597Z,88.22
2022-11-16T17:25:06.512Z,88.48
2022-11-16T17:26:40.238Z,87.47
2022-11-16T17:28:15.298Z,87.64
2022-11-16T17:29:47.433Z,88.15
2022-11-16T17:31:19.465Z,88.54
2022-11-16T17:32:54.701Z,88.64
2022-11-16T17:34:26.804Z,88.78
2022-11-16T17:36:01.531Z,88.81
2022-11-16T17:37:33.403Z,88.64
2022-11-16T17:39:08.283Z,88.80
2022-11-16T17:40:41.658Z,88.55
2022-11-16T17:42:18.071Z,88.88
2022-11-16T17:43:51.979Z,88.46
2022-11-16T17:45:24.442Z,88.10
2022-11-16T17:46:56.440Z,88.75
2022-11-16T17:48:30.285Z,88.40
2022-11-16T17:50:03.441Z,88.19
2022-11-16T17:51:35.225Z,89.08
2022-11-16T17:53:07.412Z,88.50
2022-11-16T17:54:39.266Z,89.37
2022-11-16T17:56:12.437Z,88.74
2022-11-16T17:57:44.284Z,88.66
2022-11-16T17:59:16.312Z,88.81
2022-11-16T18:00:48.489Z,88.86
2022-11-16T18:02:20.386Z,89.15
2022-11-16T18:03:52.279Z,89.67
2022-11-16T18:05:24.196Z,89.88
2022-11-16T18:06:56.168Z,89.91
2022-11-16T18:08:28.063Z,89.18
2022-11-16T18:10:05.124Z,88.95
2022-11-16T18:11:44.335Z,89.27
2022-11-16T18:13:16.181Z,89.15
2022-11-16T18:15:13.577Z,88.72
2022-11-16T18:16:42.421Z,89.57
2022-11-16T18:18:14.180Z,89.12
2022-11-16T18:19:45.991Z,89.38
2022-11-16T18:21:20.677Z,89.46
2022-11-16T18:22:53.103Z,89.00
2022-11-16T18:24:25.035Z,89.72
2022-11-16T18:26:09.384Z,89.41
2022-11-16T18:27:42.756Z,88.97
2022-11-16T18:29:16.082Z,89.46
2022-11-16T18:30:48.371Z,88.69
2022-11-16T18:35:26.120Z,89.20
2022-11-16T18:36:57.835Z,88.99
2022-11-16T18:40:29.135Z,88.93
2022-11-16T18:42:00.836Z,89.04
2022-11-16T18:44:59.110Z,89.23
2022-11-16T18:46:20.184Z,90.17
2022-11-16T18:47:55.580Z,91.66
2022-11-16T18:49:27.304Z,91.53
2022-11-16T18:50:59.329Z,92.10
2022-11-16T18:52:31.013Z,91.83
2022-11-16T18:54:03.028Z,92.87
2022-11-16T18:55:34.787Z,92.25
2022-11-16T18:57:11.479Z,91.92
2022-11-16T18:58:52.478Z,90.92
2022-11-16T19:00:26.072Z,90.99
2022-11-16T19:01:57.837Z,91.33
2022-11-16T19:03:29.794Z,91.10
2022-11-16T19:05:02.205Z,91.38
2022-11-16T19:06:34.275Z,92.62
2022-11-16T19:08:09.282Z,92.26
2022-11-16T19:09:41.042Z,92.30
2022-11-16T19:11:13.493Z,92.42
2022-11-16T19:12:45.181Z,92.31
2022-11-16T19:14:16.920Z,92.17
2022-11-16T19:15:50.306Z,91.72
2022-11-16T19:17:24.626Z,91.26
2022-11-16T19:18:56.590Z,91.05
2022-11-16T19:20:28.406Z,91.49
2022-11-16T19:22:00.215Z,91.85
2022-11-16T19:23:35.843Z,92.12
2022-11-16T19:25:08.985Z,92.13
2022-11-16T19:26:50.068Z,91.34
2022-11-16T19:28:24.712Z,91.88
2022-11-16T19:29:56.443Z,91.60
2022-11-16T19:31:29.905Z,92.43
2022-11-16T19:33:02.358Z,92.86
2022-11-16T19:34:34.360Z,93.64
2022-11-16T19:36:10.427Z,93.08
2022-11-16T19:37:42.489Z,92.21
2022-11-16T19:39:14.229Z,92.46
2022-11-16T19:40:46.191Z,91.79
2022-11-16T19:42:18.144Z,92.05
2022-11-16T19:43:52.601Z,92.19
2022-11-16T19:45:24.564Z,91.57
2022-11-16T19:46:57.663Z,92.44
2022-11-16T19:48:30.215Z,92.70
2022-11-16T19:50:02.371Z,92.03
2022-11-16T19:51:34.291Z,91.54
2022-11-16T19:53:09.255Z,92.14
2022-11-16T19:54:41.173Z,91.59
2022-11-16T19:56:13.830Z,91.45
2022-11-16T19:57:45.709Z,91.73
2022-11-16T19:59:17.655Z,91.71
2022-11-16T20:00:49.491Z,91.94
2022-11-16T20:02:23.098Z,92.45
2022-11-16T20:03:55.556Z,91.45
2022-11-16T20:05:29.996Z,92.64
2022-11-16T20:07:01.828Z,92.10
2022-11-16T20:08:33.611Z,91.61
2022-11-16T20:10:08.639Z,91.06
2022-11-16T20:11:41.073Z,91.45
2022-11-16T20:13:13.095Z,91.43
2022-11-16T20:14:45.147Z,91.42
2022-11-16T20:16:17.715Z,90.98
2022-11-16T20:17:50.914Z,91.11
2022-11-16T20:19:22.777Z,91.18
2022-11-16T20:20:54.760Z,91.07
2022-11-16T20:23:10.667Z,92.37
2022-11-16T20:24:44.938Z,92.04
2022-11-16T20:26:18.678Z,93.95
2022-11-16T20:27:53.446Z,94.24
2022-11-16T20:29:25.210Z,93.74
2022-11-16T20:30:56.961Z,92.96
2022-11-16T20:32:28.672Z,91.98
2022-11-16T20:34:02.767Z,91.98
2022-11-16T20:35:35.027Z,91.82
2022-11-16T20:37:09.330Z,91.90
2022-11-16T20:38:41.260Z,93.13
2022-11-16T20:40:13.909Z,92.41
2022-11-16T20:41:45.765Z,92.51
2022-11-16T20:43:26.470Z,92.87
2022-11-16T20:44:58.236Z,91.85
2022-11-16T20:46:31.165Z,91.94
2022-11-16T20:48:04.059Z,91.46
2022-11-16T20:50:08.381Z,91.55
2022-11-16T20:52:23.286Z,91.95
2022-11-16T20:56:19.097Z,92.98
2022-11-16T20:58:00.027Z,92.08
2022-11-16T20:59:47.498Z,92.17